Hauptseite
METAR-TAF:

METAR-TAF

Flughäfen :

RAF Coningsby

Coningsby, England

Breite: 53-05N, Länge: 000-10W, Höhe: 7 m

Beobachtung

Neuester Wetterbericht von vor 1 Stunde und 3 Minuten, um 18:50 UTC
Wind 5 kt aus West
Temperatur 17°C
Luftfeuchtigkeit 52%
Luftdruck 1017 hPa
Sichtweite 10 km oder mehr
keine Wolken unter 1500 m und keine Kumulonimbus oder Gewitterwolken

METAR: EGXC 221850Z 27005KT CAVOK 17/07 Q1017 BLU

Zeit: 20:53 (19:53 UTC)

Prognose

Neuester Wetterbericht von vor 3 Stunden und 17 Minuten, um 16:36 UTC
Gültige Prognose vom 22 um 18 UTC bis 23 um 12 UTC
Wind 7 kt aus West/Südwest
Sichtweite 10 km oder mehr
keine Wolken unter 1500 m und keine Kumulonimbus oder Gewitterwolken

TAF: EGXC 221636Z 2218/2312 25007KT CAVOK

Wetterbeobachtungen und Prognosen von mehr als 4000 Flughäfen (METAR und TAF Bericht).

Die verfügbaren Stationen werden durch gelbe und rote Markierungen auf der Karte dargestellt.

Führen Sie die Maus auf sie, um den Namen der Station zu sehen.

Darauf klicken, um die Beobachtung von Wetterbeobachtungen und Prognosen zu sehen.

Um die Karte zu ändern : klicken Sie auf den grünen Tasten mit einem schwarzen Kreuz Zum Vergrößern, auf den grünen Button mit einem Gedankenstrich zu verkleinern, oder auf die grünen Pfeile für benachbarte Karten.


METAR-TAF: